<?xml version="1.0" encoding="UTF-8" standalone="no" ?>
<gpx xmlns="http://www.topografix.com/GPX/1/1" xmlns:xsi="http://www.w3.org/2001/XMLSchema-instance" xsi:schemaLocation="http://www.topografix.com/GPX/1/1 http://www.topografix.com/GPX/1/1/gpx.xsd" version="1.1" creator="VisuGPX - https://www.visugpx.com">
  <metadata>
    <name>boucles beaumont</name>
    <desc><![CDATA[boucles beaumont du périgord]]></desc>
  </metadata>
  <trk>
    <name><![CDATA[BBmt25]]></name>
    <trkseg>
      <trkpt lat="44.77338" lon="0.7866">
        <ele>145</ele>
        <time>2008-12-03T11:52:52Z</time>
      </trkpt>
      <trkpt lat="44.77353" lon="0.78645">
        <ele>140</ele>
        <time>2008-12-03T11:54:26Z</time>
      </trkpt>
      <trkpt lat="44.77373" lon="0.78645">
        <ele>139</ele>
        <time>2008-12-03T11:54:30Z</time>
      </trkpt>
      <trkpt lat="44.77395" lon="0.78643">
        <ele>138</ele>
        <time>2008-12-03T11:54:33Z</time>
      </trkpt>
      <trkpt lat="44.77418" lon="0.78633">
        <ele>136</ele>
        <time>2008-12-03T11:54:36Z</time>
      </trkpt>
      <trkpt lat="44.7744" lon="0.78618">
        <ele>135</ele>
        <time>2008-12-03T11:54:39Z</time>
      </trkpt>
      <trkpt lat="44.77463" lon="0.78603">
        <ele>135</ele>
        <time>2008-12-03T11:54:42Z</time>
      </trkpt>
      <trkpt lat="44.77485" lon="0.78595">
        <ele>135</ele>
        <time>2008-12-03T11:54:45Z</time>
      </trkpt>
      <trkpt lat="44.77508" lon="0.78588">
        <ele>134</ele>
        <time>2008-12-03T11:54:48Z</time>
      </trkpt>
      <trkpt lat="44.7753" lon="0.78585">
        <ele>135</ele>
        <time>2008-12-03T11:54:51Z</time>
      </trkpt>
      <trkpt lat="44.7755" lon="0.78583">
        <ele>135</ele>
        <time>2008-12-03T11:54:54Z</time>
      </trkpt>
      <trkpt lat="44.77573" lon="0.78585">
        <ele>137</ele>
        <time>2008-12-03T11:54:58Z</time>
      </trkpt>
      <trkpt lat="44.77598" lon="0.7859">
        <ele>138</ele>
        <time>2008-12-03T11:55:02Z</time>
      </trkpt>
      <trkpt lat="44.77618" lon="0.78585">
        <ele>134</ele>
        <time>2008-12-03T11:55:13Z</time>
      </trkpt>
      <trkpt lat="44.77635" lon="0.7857">
        <ele>130</ele>
        <time>2008-12-03T11:55:18Z</time>
      </trkpt>
      <trkpt lat="44.77655" lon="0.78553">
        <ele>128</ele>
        <time>2008-12-03T11:55:22Z</time>
      </trkpt>
      <trkpt lat="44.77678" lon="0.78535">
        <ele>124</ele>
        <time>2008-12-03T11:55:26Z</time>
      </trkpt>
      <trkpt lat="44.77695" lon="0.7852">
        <ele>121</ele>
        <time>2008-12-03T11:55:29Z</time>
      </trkpt>
      <trkpt lat="44.77713" lon="0.78505">
        <ele>120</ele>
        <time>2008-12-03T11:55:32Z</time>
      </trkpt>
      <trkpt lat="44.7773" lon="0.78493">
        <ele>119</ele>
        <time>2008-12-03T11:55:35Z</time>
      </trkpt>
      <trkpt lat="44.77745" lon="0.78478">
        <ele>118</ele>
        <time>2008-12-03T11:55:38Z</time>
      </trkpt>
      <trkpt lat="44.77763" lon="0.78463">
        <ele>119</ele>
        <time>2008-12-03T11:55:42Z</time>
      </trkpt>
      <trkpt lat="44.7778" lon="0.78445">
        <ele>119</ele>
        <time>2008-12-03T11:55:46Z</time>
      </trkpt>
      <trkpt lat="44.77798" lon="0.78428">
        <ele>118</ele>
        <time>2008-12-03T11:55:50Z</time>
      </trkpt>
      <trkpt lat="44.77815" lon="0.78413">
        <ele>119</ele>
        <time>2008-12-03T11:55:54Z</time>
      </trkpt>
    </trkseg>
  </trk>
</gpx>